createdAt,value
2018-04-07T00:01:47.806Z,9.83
2018-04-07T00:04:16.191Z,9.69
2018-04-07T00:06:44.544Z,9.70
2018-04-07T00:09:12.891Z,9.60
2018-04-07T00:11:41.271Z,9.70
2018-04-07T00:14:09.568Z,9.87
2018-04-07T00:16:38.654Z,9.81
2018-04-07T00:19:07.475Z,9.86
2018-04-07T00:21:35.901Z,9.92
2018-04-07T00:24:04.223Z,9.76
2018-04-07T00:26:32.675Z,9.64
2018-04-07T00:29:01.025Z,9.70
2018-04-07T00:31:29.376Z,9.66
2018-04-07T00:33:57.752Z,9.73
2018-04-07T00:36:26.131Z,9.60
2018-04-07T00:38:54.471Z,9.62
2018-04-07T00:41:23.131Z,9.54
2018-04-07T00:43:51.431Z,9.72
2018-04-07T00:46:19.792Z,9.64
2018-04-07T00:48:48.178Z,9.57
2018-04-07T00:51:16.543Z,9.70
2018-04-07T00:53:44.978Z,9.59
2018-04-07T00:56:13.456Z,9.59
2018-04-07T00:58:41.889Z,9.53
2018-04-07T01:01:10.212Z,9.59
2018-04-07T01:03:38.967Z,9.49
2018-04-07T01:06:07.316Z,9.54
2018-04-07T01:08:35.736Z,9.56
2018-04-07T01:11:04.181Z,9.52
2018-04-07T01:13:32.589Z,9.52
2018-04-07T01:16:00.912Z,9.41
2018-04-07T01:18:29.362Z,9.42
2018-04-07T01:20:57.746Z,9.36
2018-04-07T01:23:26.228Z,9.45
2018-04-07T01:25:55.524Z,9.44
2018-04-07T01:28:23.905Z,9.53
2018-04-07T01:30:52.246Z,9.54
2018-04-07T01:33:21.096Z,9.42
2018-04-07T01:35:50.191Z,9.39
2018-04-07T01:38:18.495Z,9.28
2018-04-07T01:40:46.845Z,9.48
2018-04-07T01:43:15.971Z,9.57
2018-04-07T01:45:44.299Z,9.60
2018-04-07T01:48:12.723Z,9.54
2018-04-07T01:50:41.058Z,9.57
2018-04-07T01:53:09.400Z,9.40
2018-04-07T01:55:37.736Z,9.36
2018-04-07T01:58:06.814Z,9.25
2018-04-07T02:00:35.129Z,9.31
2018-04-07T02:03:03.525Z,9.35
2018-04-07T02:05:31.868Z,9.36
2018-04-07T02:08:00.959Z,9.38
2018-04-07T02:10:30.194Z,9.29
2018-04-07T02:12:58.528Z,9.30
2018-04-07T02:15:27.655Z,9.25
2018-04-07T02:17:56.029Z,9.26
2018-04-07T02:20:24.353Z,8.93
2018-04-07T02:22:52.692Z,9.04
2018-04-07T02:25:21.067Z,8.85
2018-04-07T02:27:49.453Z,8.86
2018-04-07T02:30:17.793Z,9.15
2018-04-07T02:32:46.720Z,9.19
2018-04-07T02:35:15.672Z,9.08
2018-04-07T02:37:44.020Z,9.10
2018-04-07T02:40:12.368Z,9.13
2018-04-07T02:42:40.747Z,9.18
2018-04-07T02:45:09.089Z,9.00
2018-04-07T02:47:37.422Z,8.91
2018-04-07T02:50:05.744Z,8.97
2018-04-07T02:52:34.162Z,9.11
2018-04-07T02:55:02.946Z,8.74
2018-04-07T02:57:31.246Z,8.77
2018-04-07T02:59:59.555Z,8.82
2018-04-07T03:02:27.916Z,8.72
2018-04-07T03:04:56.256Z,8.61
2018-04-07T03:07:24.591Z,8.51
2018-04-07T03:09:52.929Z,8.79
2018-04-07T03:12:21.244Z,8.76
2018-04-07T03:14:49.555Z,8.86
2018-04-07T03:17:18.751Z,9.00
2018-04-07T03:19:47.864Z,8.91
2018-04-07T03:22:16.193Z,8.72
2018-04-07T03:24:44.527Z,8.75
2018-04-07T03:27:12.855Z,8.82
2018-04-07T03:29:41.212Z,8.77
2018-04-07T03:32:09.565Z,8.93
2018-04-07T03:34:37.919Z,8.89
2018-04-07T03:37:06.391Z,8.73
2018-04-07T03:39:34.938Z,8.71
2018-04-07T03:42:03.264Z,8.74
2018-04-07T03:44:32.342Z,8.69
2018-04-07T03:47:00.707Z,8.74
2018-04-07T03:49:29.041Z,8.77
2018-04-07T03:51:57.385Z,8.77
2018-04-07T03:54:26.497Z,8.93
2018-04-07T03:56:55.566Z,8.99
2018-04-07T03:59:23.887Z,8.85
2018-04-07T04:01:52.511Z,8.82
2018-04-07T04:04:20.875Z,8.70
2018-04-07T04:06:49.182Z,8.76
2018-04-07T04:09:17.538Z,8.79
2018-04-07T04:11:45.870Z,8.77
2018-04-07T04:14:14.959Z,8.63
2018-04-07T04:16:44.100Z,8.52
2018-04-07T04:19:12.438Z,8.58
2018-04-07T04:21:40.790Z,8.59
2018-04-07T04:24:09.222Z,8.66
2018-04-07T04:26:37.535Z,8.41
2018-04-07T04:29:05.852Z,8.44
2018-04-07T04:31:35.040Z,8.37
2018-04-07T04:34:03.367Z,8.17
2018-04-07T04:36:31.717Z,8.34
2018-04-07T04:39:00.150Z,8.38
2018-04-07T04:41:28.487Z,8.35
2018-04-07T04:43:56.840Z,8.58
2018-04-07T04:46:25.294Z,8.57
2018-04-07T04:48:53.637Z,8.44
2018-04-07T04:51:21.957Z,8.41
2018-04-07T04:53:50.316Z,8.38
2018-04-07T04:56:18.661Z,8.36
2018-04-07T04:58:46.970Z,8.36
2018-04-07T05:01:15.311Z,8.33
2018-04-07T05:03:43.680Z,8.36
2018-04-07T05:06:12.001Z,8.49
2018-04-07T05:08:40.514Z,8.60
2018-04-07T05:11:08.834Z,8.68
2018-04-07T05:13:37.912Z,8.81
2018-04-07T05:16:07.036Z,8.53
2018-04-07T05:18:35.379Z,8.62
2018-04-07T05:21:03.752Z,8.53
2018-04-07T05:23:32.902Z,8.49
2018-04-07T05:26:01.249Z,8.66
2018-04-07T05:28:29.592Z,8.76
2018-04-07T05:30:58.152Z,8.93
2018-04-07T05:33:26.473Z,8.97
2018-04-07T05:35:54.846Z,9.01
2018-04-07T05:38:24.033Z,9.12
2018-04-07T05:40:52.378Z,9.23
2018-04-07T05:43:20.713Z,9.09
2018-04-07T05:45:49.896Z,8.95
2018-04-07T05:48:18.236Z,8.99
2018-04-07T05:50:46.571Z,8.94
2018-04-07T05:53:15.814Z,8.85
2018-04-07T05:55:44.182Z,8.63
2018-04-07T05:58:12.524Z,8.82
2018-04-07T06:00:41.667Z,9.10
2018-04-07T06:03:10.079Z,9.05
2018-04-07T06:05:38.421Z,9.22
2018-04-07T06:08:06.816Z,9.40
2018-04-07T06:10:35.253Z,9.37
2018-04-07T06:13:04.424Z,9.46
2018-04-07T06:15:33.681Z,9.65
2018-04-07T06:18:02.004Z,9.81
2018-04-07T06:20:30.343Z,9.88
2018-04-07T06:22:58.700Z,9.76
2018-04-07T06:25:27.034Z,9.94
2018-04-07T06:27:55.380Z,9.79
2018-04-07T06:30:23.747Z,9.84
2018-04-07T06:32:52.081Z,10.01
2018-04-07T06:35:21.201Z,10.32
2018-04-07T06:37:50.906Z,10.36
2018-04-07T06:40:19.978Z,10.51
2018-04-07T06:42:48.331Z,10.49
2018-04-07T06:45:16.774Z,10.81
2018-04-07T06:47:45.135Z,10.84
2018-04-07T06:50:14.233Z,10.80
2018-04-07T06:52:43.372Z,11.10
2018-04-07T06:55:11.723Z,11.28
2018-04-07T06:57:40.800Z,11.31
2018-04-07T07:00:09.328Z,11.39
2018-04-07T07:02:37.672Z,11.52
2018-04-07T07:05:06.776Z,11.49
2018-04-07T07:07:35.177Z,11.85
2018-04-07T07:10:03.521Z,11.59
2018-04-07T07:12:32.608Z,11.68
2018-04-07T07:15:01.747Z,12.10
2018-04-07T07:17:30.093Z,12.09
2018-04-07T07:19:59.177Z,12.42
2018-04-07T07:22:28.004Z,13.17
2018-04-07T07:24:56.310Z,13.67
2018-04-07T07:27:24.712Z,13.98
2018-04-07T07:29:53.133Z,14.29
2018-04-07T07:32:21.454Z,14.60
2018-04-07T07:34:49.797Z,14.91
2018-04-07T07:37:18.180Z,14.76
2018-04-07T07:39:46.576Z,14.53
2018-04-07T07:42:14.930Z,14.75
2018-04-07T07:44:43.412Z,15.01
2018-04-07T07:47:11.758Z,16.27
2018-04-07T07:49:40.147Z,15.93
2018-04-07T07:52:08.572Z,15.75
2018-04-07T07:54:36.929Z,16.89
2018-04-07T07:57:05.276Z,17.02
2018-04-07T07:59:33.655Z,16.25
2018-04-07T08:02:01.996Z,16.29
2018-04-07T08:04:30.343Z,16.53
2018-04-07T08:06:58.967Z,17.03
2018-04-07T08:09:27.292Z,17.80
2018-04-07T08:11:55.638Z,18.02
2018-04-07T08:14:24.012Z,16.49
2018-04-07T08:16:52.338Z,16.24
2018-04-07T08:19:21.416Z,16.64
2018-04-07T08:21:50.553Z,17.17
2018-04-07T08:24:18.891Z,16.66
2018-04-07T08:26:47.994Z,17.53
2018-04-07T08:29:16.436Z,19.40
2018-04-07T08:31:44.783Z,19.22
2018-04-07T08:34:13.838Z,19.25
2018-04-07T08:36:42.232Z,19.98
2018-04-07T08:39:10.596Z,20.19
2018-04-07T08:41:38.980Z,21.08
2018-04-07T08:44:07.350Z,22.43
2018-04-07T08:46:35.809Z,22.32
2018-04-07T08:49:04.609Z,22.68
2018-04-07T08:51:35.908Z,21.38
2018-04-07T08:54:04.421Z,21.41
2018-04-07T08:56:32.910Z,21.35
2018-04-07T08:59:01.320Z,19.97
2018-04-07T09:01:30.503Z,19.76
2018-04-07T09:03:58.877Z,19.82
2018-04-07T09:06:27.354Z,19.83
2018-04-07T09:08:55.728Z,20.39
2018-04-07T09:11:24.150Z,21.60
2018-04-07T09:13:52.848Z,20.72
2018-04-07T09:16:21.224Z,21.20
2018-04-07T09:18:50.356Z,22.12
2018-04-07T09:21:18.753Z,21.66
2018-04-07T09:23:47.125Z,22.61
2018-04-07T09:26:15.455Z,21.97
2018-04-07T09:28:44.617Z,19.98
2018-04-07T09:31:18.538Z,19.59
2018-04-07T09:33:47.315Z,19.93
2018-04-07T09:36:15.744Z,21.12
2018-04-07T09:38:44.156Z,22.44
2018-04-07T09:41:12.649Z,23.17
2018-04-07T09:43:41.038Z,22.32
2018-04-07T09:46:09.464Z,23.42
2018-04-07T09:48:37.875Z,23.34
2018-04-07T09:51:06.368Z,24.24
2018-04-07T09:53:35.545Z,23.20
2018-04-07T09:56:04.276Z,23.19
2018-04-07T09:58:32.640Z,23.22
2018-04-07T10:01:01.042Z,23.09
2018-04-07T10:03:30.271Z,22.79
2018-04-07T10:05:58.679Z,21.71
2018-04-07T10:08:27.054Z,21.67
2018-04-07T10:10:55.607Z,23.45
2018-04-07T10:13:24.708Z,22.50
2018-04-07T10:15:53.049Z,22.60
2018-04-07T10:20:56.958Z,23.41
2018-04-07T10:23:25.351Z,24.12
2018-04-07T10:25:53.725Z,25.30
2018-04-07T10:28:22.042Z,26.16
2018-04-07T10:30:50.389Z,26.87
2018-04-07T10:33:18.727Z,27.34
2018-04-07T10:35:47.177Z,27.57
2018-04-07T10:38:16.374Z,29.16
2018-04-07T10:40:44.788Z,25.83
2018-04-07T10:43:13.138Z,26.44
2018-04-07T10:45:42.466Z,25.71
2018-04-07T10:48:10.833Z,25.48
2018-04-07T10:50:39.185Z,27.45
2018-04-07T10:53:07.630Z,27.34
2018-04-07T10:55:35.971Z,28.24
2018-04-07T10:58:04.297Z,27.20
2018-04-07T11:00:32.815Z,26.50
2018-04-07T11:03:01.912Z,26.93
2018-04-07T11:05:31.011Z,26.71
2018-04-07T11:08:00.167Z,26.18
2018-04-07T11:10:28.601Z,26.51
2018-04-07T11:12:57.705Z,26.86
2018-04-07T11:15:26.054Z,25.62
2018-04-07T11:17:54.382Z,26.27
2018-04-07T11:20:22.703Z,26.80
2018-04-07T11:22:51.122Z,27.07
2018-04-07T11:25:19.470Z,26.01
2018-04-07T11:27:48.562Z,25.80
2018-04-07T11:30:17.661Z,26.12
2018-04-07T11:32:46.834Z,27.56
2018-04-07T11:35:15.170Z,26.70
2018-04-07T11:37:44.424Z,27.15
2018-04-07T11:40:12.845Z,26.90
2018-04-07T11:42:41.295Z,27.93
2018-04-07T11:45:10.197Z,26.68
2018-04-07T11:47:39.316Z,28.25
2018-04-07T11:50:07.673Z,27.91
2018-04-07T11:52:36.054Z,27.80
2018-04-07T11:55:04.373Z,26.54
2018-04-07T11:57:32.869Z,27.06
2018-04-07T12:00:01.221Z,26.53
2018-04-07T12:02:29.651Z,26.64
2018-04-07T12:04:58.780Z,27.25
2018-04-07T12:07:27.292Z,27.85
2018-04-07T12:09:55.642Z,26.82
2018-04-07T12:12:24.013Z,25.41
2018-04-07T12:14:52.542Z,25.77
2018-04-07T12:17:20.907Z,25.98
2018-04-07T12:19:49.264Z,27.22
2018-04-07T12:22:17.733Z,26.96
2018-04-07T12:24:46.099Z,26.48
2018-04-07T12:27:15.212Z,26.86
2018-04-07T12:29:44.520Z,25.78
2018-04-07T12:32:12.929Z,26.82
2018-04-07T12:34:41.281Z,27.53
2018-04-07T12:37:09.805Z,28.27
2018-04-07T12:39:38.223Z,29.60
2018-04-07T12:42:12.865Z,30.55
2018-04-07T12:44:41.286Z,27.65
2018-04-07T12:47:09.794Z,26.56
2018-04-07T12:49:38.502Z,27.42
2018-04-07T12:52:06.875Z,27.39
2018-04-07T12:54:35.250Z,26.54
2018-04-07T12:57:03.764Z,25.86
2018-04-07T12:59:32.169Z,25.69
2018-04-07T13:02:00.574Z,27.28
2018-04-07T13:04:29.259Z,27.66
2018-04-07T13:07:00.431Z,27.34
2018-04-07T13:09:28.793Z,27.24
2018-04-07T13:11:57.246Z,27.80
2018-04-07T13:14:25.676Z,28.06
2018-04-07T13:16:54.128Z,26.51
2018-04-07T13:19:22.730Z,26.91
2018-04-07T13:21:51.112Z,26.71
2018-04-07T13:24:20.224Z,26.88
2018-04-07T13:26:48.559Z,26.77
2018-04-07T13:29:16.880Z,27.38
2018-04-07T13:31:46.002Z,26.78
2018-04-07T13:34:14.720Z,25.77
2018-04-07T13:36:43.104Z,25.88
2018-04-07T13:39:11.563Z,25.32
2018-04-07T13:41:39.925Z,25.20
2018-04-07T13:44:08.283Z,24.62
2018-04-07T13:46:36.672Z,25.78
2018-04-07T13:49:05.027Z,26.13
2018-04-07T13:51:34.150Z,25.89
2018-04-07T13:54:02.539Z,25.71
2018-04-07T13:56:31.011Z,24.99
2018-04-07T13:58:59.393Z,24.61
2018-04-07T14:01:27.788Z,24.60
2018-04-07T14:03:56.173Z,24.36
2018-04-07T14:06:24.498Z,25.03
2018-04-07T14:08:52.815Z,25.00
2018-04-07T14:11:21.225Z,25.00
2018-04-07T14:13:49.561Z,23.96
2018-04-07T14:16:17.926Z,24.11
2018-04-07T14:18:46.409Z,23.66
2018-04-07T14:21:14.757Z,23.65
2018-04-07T14:23:43.256Z,23.47
2018-04-07T14:26:11.669Z,23.60
2018-04-07T14:28:40.029Z,23.41
2018-04-07T14:31:09.130Z,23.57
2018-04-07T14:33:37.505Z,23.21
2018-04-07T14:36:05.881Z,23.27
2018-04-07T14:38:34.973Z,23.35
2018-04-07T14:41:04.439Z,23.69
2018-04-07T14:43:32.794Z,23.01
2018-04-07T14:46:01.145Z,23.02
2018-04-07T14:48:29.526Z,23.11
2018-04-07T14:50:58.615Z,23.07
2018-04-07T14:53:27.715Z,23.17
2018-04-07T14:55:56.187Z,23.36
2018-04-07T14:58:25.323Z,23.39
2018-04-07T15:00:53.692Z,22.78
2018-04-07T15:03:22.180Z,23.01
2018-04-07T15:05:50.545Z,23.13
2018-04-07T15:08:18.900Z,23.09
2018-04-07T15:10:48.069Z,23.23
2018-04-07T15:13:16.442Z,22.73
2018-04-07T15:15:44.820Z,22.83
2018-04-07T15:18:13.204Z,22.84
2018-04-07T15:20:41.578Z,22.71
2018-04-07T15:23:09.910Z,22.47
2018-04-07T15:25:39.135Z,22.50
2018-04-07T15:28:07.489Z,22.17
2018-04-07T15:30:36.586Z,21.89
2018-04-07T15:33:05.850Z,21.72
2018-04-07T15:35:34.254Z,21.97
2018-04-07T15:38:02.649Z,22.17
2018-04-07T15:40:32.594Z,22.34
2018-04-07T15:43:01.237Z,22.53
2018-04-07T15:45:30.325Z,22.65
2018-04-07T15:47:59.119Z,22.48
2018-04-07T15:50:28.216Z,22.54
2018-04-07T15:52:57.316Z,22.39
2018-04-07T15:55:26.524Z,22.13
2018-04-07T15:57:54.963Z,22.24
2018-04-07T16:00:23.351Z,21.83
2018-04-07T16:02:51.735Z,21.69
2018-04-07T16:05:20.841Z,21.81
2018-04-07T16:07:49.205Z,21.80
2018-04-07T16:10:17.874Z,21.79
2018-04-07T16:12:46.210Z,21.85
2018-04-07T16:15:14.565Z,22.02
2018-04-07T16:17:43.734Z,21.92
2018-04-07T16:20:12.224Z,21.82
2018-04-07T16:22:40.559Z,21.71
2018-04-07T16:25:08.959Z,21.65
2018-04-07T16:27:37.366Z,21.62
2018-04-07T16:30:05.737Z,21.39
2018-04-07T16:32:34.253Z,21.47
2018-04-07T16:35:02.649Z,21.29
2018-04-07T16:37:30.978Z,21.47
2018-04-07T16:39:59.345Z,21.37
2018-04-07T16:42:27.658Z,21.20
2018-04-07T16:44:56.785Z,21.06
2018-04-07T16:47:25.142Z,21.13
2018-04-07T16:49:54.300Z,21.11
2018-04-07T16:52:22.820Z,21.01
2018-04-07T16:54:51.215Z,21.20
2018-04-07T16:57:20.361Z,21.10
2018-04-07T16:59:48.740Z,21.03
2018-04-07T17:02:17.104Z,21.06
2018-04-07T17:04:45.457Z,21.05
2018-04-07T17:07:13.828Z,21.06
2018-04-07T17:09:42.968Z,20.94
2018-04-07T17:12:11.349Z,20.90
2018-04-07T17:14:39.689Z,20.79
2018-04-07T17:17:08.325Z,20.69
2018-04-07T17:19:36.687Z,20.73
2018-04-07T17:22:05.056Z,20.36
2018-04-07T17:24:33.421Z,20.42
2018-04-07T17:27:01.776Z,20.44
2018-04-07T17:29:30.896Z,20.41
2018-04-07T17:31:59.255Z,20.32
2018-04-07T17:34:28.388Z,20.53
2018-04-07T17:36:56.729Z,20.46
2018-04-07T17:39:25.950Z,20.35
2018-04-07T17:41:54.309Z,20.29
2018-04-07T17:44:23.432Z,20.13
2018-04-07T17:46:51.802Z,20.02
2018-04-07T17:49:20.184Z,20.01
2018-04-07T17:51:48.527Z,19.84
2018-04-07T17:54:16.905Z,19.78
2018-04-07T17:56:46.025Z,19.78
2018-04-07T17:59:15.125Z,19.74
2018-04-07T18:01:44.431Z,19.74
2018-04-07T18:04:12.852Z,19.81
2018-04-07T18:06:41.267Z,19.65
2018-04-07T18:09:10.436Z,19.59
2018-04-07T18:11:38.820Z,19.60
2018-04-07T18:14:07.156Z,19.49
2018-04-07T18:16:35.508Z,19.43
2018-04-07T18:19:04.599Z,19.35
2018-04-07T18:21:33.716Z,19.36
2018-04-07T18:24:02.497Z,19.37
2018-04-07T18:26:30.845Z,19.28
2018-04-07T18:28:59.144Z,19.25
2018-04-07T18:31:28.296Z,19.19
2018-04-07T18:33:56.619Z,19.09
2018-04-07T18:36:24.977Z,19.10
2018-04-07T18:38:53.348Z,18.99
2018-04-07T18:41:21.801Z,19.11
2018-04-07T18:43:50.130Z,18.97
2018-04-07T18:46:19.173Z,18.90
2018-04-07T18:48:47.520Z,18.84
2018-04-07T18:51:15.861Z,18.76
2018-04-07T18:53:44.241Z,18.77
2018-04-07T18:56:16.932Z,18.66
2018-04-07T18:58:46.109Z,18.51
2018-04-07T19:01:14.515Z,18.49
2018-04-07T19:03:43.619Z,18.34
2018-04-07T19:06:13.445Z,18.32
2018-04-07T19:08:41.790Z,18.33
2018-04-07T19:13:38.708Z,18.16
2018-04-07T19:16:07.075Z,18.21
2018-04-07T19:18:35.487Z,18.26
2018-04-07T19:21:03.850Z,18.04
2018-04-07T19:23:32.212Z,18.02
2018-04-07T19:26:01.077Z,17.97
2018-04-07T19:28:30.538Z,17.81
2018-04-07T19:30:58.870Z,17.75
2018-04-07T19:33:27.969Z,17.73
2018-04-07T19:35:57.145Z,17.55
2018-04-07T19:38:25.489Z,17.63
2018-04-07T19:40:53.837Z,17.69
2018-04-07T19:43:22.217Z,17.53
2018-04-07T19:45:51.313Z,17.48
2018-04-07T19:48:20.000Z,17.64
2018-04-07T19:50:48.755Z,17.55
2018-04-07T19:53:17.149Z,17.43
2018-04-07T19:55:46.256Z,17.37
2018-04-07T19:58:14.665Z,17.21
2018-04-07T20:00:43.014Z,17.16
2018-04-07T20:03:12.137Z,17.28
2018-04-07T20:05:40.588Z,17.31
2018-04-07T20:08:09.705Z,17.35
2018-04-07T20:10:38.092Z,17.45
2018-04-07T20:13:06.538Z,17.53
2018-04-07T20:15:34.886Z,17.49
2018-04-07T20:18:03.304Z,17.39
2018-04-07T20:20:31.716Z,17.29
2018-04-07T20:23:00.035Z,17.30
2018-04-07T20:25:28.371Z,17.24
2018-04-07T20:27:56.784Z,16.97
2018-04-07T20:30:25.132Z,16.90
2018-04-07T20:32:53.467Z,16.87
2018-04-07T20:35:22.701Z,16.78
2018-04-07T20:37:51.069Z,16.63
2018-04-07T20:40:19.452Z,16.66
2018-04-07T20:42:47.798Z,16.58
2018-04-07T20:45:16.137Z,16.45
2018-04-07T20:47:44.487Z,16.41
2018-04-07T20:50:12.873Z,16.32
2018-04-07T20:52:41.236Z,16.33
2018-04-07T20:55:09.604Z,16.28
2018-04-07T20:57:38.837Z,16.21
2018-04-07T21:00:07.187Z,16.19
2018-04-07T21:02:36.288Z,16.15
2018-04-07T21:05:04.647Z,15.94
2018-04-07T21:07:33.044Z,15.77
2018-04-07T21:10:02.168Z,15.72
2018-04-07T21:12:30.544Z,15.84
2018-04-07T21:14:58.895Z,15.75
2018-04-07T21:17:27.994Z,15.61
2018-04-07T21:19:57.272Z,15.70
2018-04-07T21:22:25.622Z,15.54
2018-04-07T21:24:54.742Z,15.69
2018-04-07T21:27:23.140Z,15.64
2018-04-07T21:29:52.308Z,15.79
2018-04-07T21:32:20.717Z,15.83
2018-04-07T21:34:49.849Z,15.72
2018-04-07T21:37:18.192Z,15.51
2018-04-07T21:39:46.537Z,15.29
2018-04-07T21:42:15.190Z,15.42
2018-04-07T21:44:43.526Z,15.54
2018-04-07T21:47:11.847Z,15.22
2018-04-07T21:49:40.517Z,15.27
2018-04-07T21:52:08.877Z,15.31
2018-04-07T21:54:37.214Z,15.34
2018-04-07T21:57:05.629Z,15.21
2018-04-07T21:59:33.984Z,15.34
2018-04-07T22:02:02.371Z,15.37
2018-04-07T22:04:31.096Z,15.49
2018-04-07T22:06:59.479Z,15.33
2018-04-07T22:09:27.829Z,15.34
2018-04-07T22:11:56.233Z,15.29
2018-04-07T22:14:25.324Z,15.27
2018-04-07T22:16:54.433Z,15.27
2018-04-07T22:19:23.580Z,15.41
2018-04-07T22:21:51.937Z,15.26
2018-04-07T22:24:20.296Z,15.07
2018-04-07T22:26:49.075Z,15.10
2018-04-07T22:29:17.412Z,14.92
2018-04-07T22:31:45.787Z,14.95
2018-04-07T22:34:14.173Z,15.13
2018-04-07T22:36:42.532Z,15.04
2018-04-07T22:39:10.849Z,15.09
2018-04-07T22:41:39.990Z,15.00
2018-04-07T22:44:08.382Z,15.04
2018-04-07T22:46:36.776Z,15.03
2018-04-07T22:49:05.167Z,14.90
2018-04-07T22:51:33.765Z,14.96
2018-04-07T22:54:02.894Z,14.82
2018-04-07T22:56:31.302Z,14.88
2018-04-07T22:58:59.644Z,14.80
2018-04-07T23:01:28.712Z,14.90
2018-04-07T23:03:57.061Z,14.89
2018-04-07T23:06:25.461Z,14.94
2018-04-07T23:08:53.809Z,15.02
2018-04-07T23:11:22.412Z,14.90
2018-04-07T23:13:50.791Z,14.78
2018-04-07T23:16:19.132Z,14.86
2018-04-07T23:18:47.473Z,14.81
2018-04-07T23:21:15.821Z,14.66
2018-04-07T23:23:44.152Z,14.69
2018-04-07T23:26:13.328Z,14.64
2018-04-07T23:28:41.692Z,14.69
2018-04-07T23:31:10.230Z,14.73
2018-04-07T23:33:38.737Z,14.66
2018-04-07T23:36:07.089Z,14.33
2018-04-07T23:38:35.433Z,14.48
2018-04-07T23:41:03.841Z,14.36
2018-04-07T23:43:32.170Z,14.34
2018-04-07T23:46:00.522Z,14.19
2018-04-07T23:48:28.937Z,14.25
2018-04-07T23:50:57.313Z,14.36
2018-04-07T23:53:26.018Z,14.45
2018-04-07T23:55:55.625Z,14.47
2018-04-07T23:58:23.972Z,14.48
